createdAt,value
2018-09-02T00:00:29.350Z,13.87
2018-09-02T00:02:57.756Z,12.50
2018-09-02T00:05:26.184Z,14.10
2018-09-02T00:07:55.018Z,13.43
2018-09-02T00:10:23.434Z,13.10
2018-09-02T00:12:51.811Z,14.50
2018-09-02T00:15:20.206Z,16.30
2018-09-02T00:17:48.611Z,18.00
2018-09-02T00:20:17.021Z,16.20
2018-09-02T00:22:45.434Z,17.53
2018-09-02T00:25:13.833Z,20.20
2018-09-02T00:27:42.531Z,16.50
2018-09-02T00:30:10.939Z,17.00
2018-09-02T00:32:40.387Z,18.07
2018-09-02T00:35:08.804Z,17.60
2018-09-02T00:37:37.197Z,17.47
2018-09-02T00:40:06.496Z,16.57
2018-09-02T00:42:34.895Z,18.80
2018-09-02T00:45:03.279Z,19.97
2018-09-02T00:47:31.785Z,16.27
2018-09-02T00:50:00.859Z,16.17
2018-09-02T00:52:29.267Z,15.20
2018-09-02T00:54:58.577Z,14.43
2018-09-02T00:57:26.988Z,15.70
2018-09-02T00:59:55.419Z,16.40
2018-09-02T01:02:23.815Z,13.50
2018-09-02T01:04:52.205Z,14.27
2018-09-02T01:07:20.607Z,14.40
2018-09-02T01:09:49.010Z,11.47
2018-09-02T01:12:17.825Z,15.43
2018-09-02T01:14:46.597Z,15.37
2018-09-02T01:17:15.000Z,14.87
2018-09-02T01:19:43.397Z,13.83
2018-09-02T01:22:12.753Z,13.73
2018-09-02T01:24:41.586Z,13.07
2018-09-02T01:27:09.977Z,14.83
2018-09-02T01:29:38.801Z,14.30
2018-09-02T01:32:07.194Z,13.47
2018-09-02T01:34:35.599Z,14.87
2018-09-02T01:37:04.035Z,14.13
2018-09-02T01:39:32.452Z,14.10
2018-09-02T01:42:00.836Z,14.87
2018-09-02T01:44:29.961Z,16.83
2018-09-02T01:46:58.366Z,15.50
2018-09-02T01:49:26.754Z,15.20
2018-09-02T01:51:55.728Z,13.90
2018-09-02T01:54:24.152Z,16.10
2018-09-02T01:56:52.870Z,19.27
2018-09-02T01:59:21.330Z,15.80
2018-09-02T02:01:49.720Z,17.57
2018-09-02T02:04:18.118Z,15.50
2018-09-02T02:06:46.529Z,16.40
2018-09-02T02:09:14.914Z,15.67
2018-09-02T02:11:43.750Z,16.63
2018-09-02T02:14:12.588Z,14.93
2018-09-02T02:16:40.979Z,16.43
2018-09-02T02:19:09.380Z,18.00
2018-09-02T02:21:37.771Z,18.23
2018-09-02T02:24:06.193Z,16.63
2018-09-02T02:26:34.642Z,18.40
2018-09-02T02:29:03.054Z,20.27
2018-09-02T02:31:31.464Z,19.33
2018-09-02T02:33:59.867Z,19.87
2018-09-02T02:36:28.258Z,16.53
2018-09-02T02:38:56.646Z,19.67
2018-09-02T02:41:25.078Z,19.97
2018-09-02T02:43:54.650Z,19.53
2018-09-02T02:46:23.492Z,16.10
2018-09-02T02:48:51.874Z,16.83
2018-09-02T02:51:20.272Z,16.20
2018-09-02T02:53:48.676Z,16.03
2018-09-02T02:56:17.088Z,16.90
2018-09-02T02:58:45.542Z,17.00
2018-09-02T03:01:13.940Z,17.43
2018-09-02T03:03:42.386Z,17.60
2018-09-02T03:06:12.123Z,17.30
2018-09-02T03:08:40.471Z,17.87
2018-09-02T03:11:08.858Z,17.73
2018-09-02T03:13:37.264Z,16.77
2018-09-02T03:16:06.657Z,18.13
2018-09-02T03:18:35.061Z,15.70
2018-09-02T03:21:03.457Z,15.97
2018-09-02T03:23:35.087Z,16.73
2018-09-02T03:26:03.960Z,16.60
2018-09-02T03:28:32.352Z,15.10
2018-09-02T03:31:00.797Z,15.37
2018-09-02T03:33:29.222Z,15.00
2018-09-02T03:35:58.403Z,15.70
2018-09-02T03:38:26.899Z,15.03
2018-09-02T03:40:55.303Z,15.40
2018-09-02T03:43:23.866Z,17.00
2018-09-02T03:45:52.250Z,15.97
2018-09-02T03:48:20.643Z,14.00
2018-09-02T03:50:49.032Z,15.33
2018-09-02T03:53:17.424Z,15.80
2018-09-02T03:55:45.814Z,15.33
2018-09-02T03:58:14.922Z,15.13
2018-09-02T04:00:43.335Z,15.03
2018-09-02T04:03:11.741Z,15.73
2018-09-02T04:05:40.233Z,15.27
2018-09-02T04:08:09.084Z,15.53
2018-09-02T04:10:37.477Z,15.63
2018-09-02T04:13:05.986Z,19.60
2018-09-02T04:15:34.371Z,14.60
2018-09-02T04:18:03.509Z,13.47
2018-09-02T04:20:36.186Z,13.23
2018-09-02T04:23:06.205Z,13.57
2018-09-02T04:25:34.979Z,14.00
2018-09-02T04:28:04.047Z,13.87
2018-09-02T04:30:32.439Z,13.03
2018-09-02T04:33:00.827Z,15.53
2018-09-02T04:35:29.223Z,15.63
2018-09-02T04:37:57.621Z,15.83
2018-09-02T04:40:26.007Z,15.17
2018-09-02T04:42:54.425Z,14.60
2018-09-02T04:45:22.876Z,14.30
2018-09-02T04:47:51.259Z,14.23
2018-09-02T04:50:21.545Z,14.57
2018-09-02T04:52:49.943Z,15.60
2018-09-02T04:55:18.377Z,14.73
2018-09-02T04:57:46.767Z,14.63
2018-09-02T05:00:15.249Z,15.73
2018-09-02T05:02:43.596Z,16.00
2018-09-02T05:05:12.003Z,15.63
2018-09-02T05:07:40.839Z,15.53
2018-09-02T05:10:09.233Z,15.73
2018-09-02T05:12:37.749Z,15.83
2018-09-02T05:15:06.700Z,15.03
2018-09-02T05:17:35.915Z,13.27
2018-09-02T05:20:04.721Z,14.50
2018-09-02T05:22:33.382Z,14.70
2018-09-02T05:25:01.773Z,15.10
2018-09-02T05:27:30.202Z,16.07
2018-09-02T05:29:58.597Z,14.17
2018-09-02T05:32:26.975Z,14.23
2018-09-02T05:34:55.349Z,13.30
2018-09-02T05:37:24.186Z,12.47
2018-09-02T05:39:52.603Z,13.07
2018-09-02T05:42:20.989Z,14.13
2018-09-02T05:44:49.383Z,14.13
2018-09-02T05:47:17.770Z,15.20
2018-09-02T05:49:46.173Z,15.93
2018-09-02T05:52:14.564Z,13.10
2018-09-02T05:54:42.962Z,12.57
2018-09-02T05:57:11.382Z,13.43
2018-09-02T05:59:40.063Z,13.70
2018-09-02T06:02:08.518Z,14.30
2018-09-02T06:04:37.535Z,14.03
2018-09-02T06:07:05.916Z,14.53
2018-09-02T06:09:34.496Z,13.47
2018-09-02T06:12:03.345Z,13.47
2018-09-02T06:14:32.416Z,15.13
2018-09-02T06:17:00.871Z,15.30
2018-09-02T06:19:29.257Z,15.80
2018-09-02T06:21:57.791Z,19.33
2018-09-02T06:24:26.298Z,20.20
2018-09-02T06:26:54.706Z,18.67
2018-09-02T06:29:23.133Z,19.83
2018-09-02T06:31:51.534Z,18.50
2018-09-02T06:34:19.922Z,17.90
2018-09-02T06:36:48.349Z,18.53
2018-09-02T06:39:16.767Z,20.00
2018-09-02T06:41:45.304Z,18.63
2018-09-02T06:44:13.763Z,18.47
2018-09-02T06:46:42.158Z,18.00
2018-09-02T06:49:10.598Z,19.07
2018-09-02T06:51:39.012Z,18.87
2018-09-02T06:54:07.414Z,17.80
2018-09-02T06:56:35.837Z,22.00
2018-09-02T06:59:04.259Z,18.83
2018-09-02T07:01:34.164Z,18.50
2018-09-02T07:04:02.581Z,20.13
2018-09-02T07:06:30.984Z,17.67
2018-09-02T07:08:59.429Z,20.53
2018-09-02T07:11:28.678Z,19.60
2018-09-02T07:13:57.073Z,17.27
2018-09-02T07:16:25.496Z,18.00
2018-09-02T07:18:53.906Z,20.00
2018-09-02T07:21:22.302Z,16.97
2018-09-02T07:23:50.737Z,21.87
2018-09-02T07:26:19.150Z,18.53
2018-09-02T07:28:47.953Z,17.33
2018-09-02T07:31:16.881Z,19.87
2018-09-02T07:33:45.316Z,21.40
2018-09-02T07:36:13.725Z,18.33
2018-09-02T07:38:42.198Z,17.30
2018-09-02T07:41:10.910Z,19.57
2018-09-02T07:43:39.765Z,19.63
2018-09-02T07:46:08.752Z,19.63
2018-09-02T07:48:37.134Z,17.80
2018-09-02T07:51:06.218Z,17.90
2018-09-02T07:53:34.610Z,17.63
2018-09-02T07:56:03.146Z,21.97
2018-09-02T07:58:31.563Z,20.83
2018-09-02T08:00:59.967Z,19.13
2018-09-02T08:03:28.355Z,20.20
2018-09-02T08:05:57.191Z,21.13
2018-09-02T08:08:25.605Z,19.63
2018-09-02T08:10:54.046Z,18.67
2018-09-02T08:13:23.056Z,18.87
2018-09-02T08:15:51.475Z,22.13
2018-09-02T08:18:19.863Z,18.17
2018-09-02T08:20:48.277Z,16.03
2018-09-02T08:23:16.710Z,19.57
2018-09-02T08:25:45.452Z,16.97
2018-09-02T08:28:13.883Z,20.50
2018-09-02T08:30:42.315Z,19.23
2018-09-02T08:33:10.738Z,18.77
2018-09-02T08:35:39.383Z,18.50
2018-09-02T08:38:12.151Z,20.13
2018-09-02T08:40:40.587Z,17.20
2018-09-02T08:43:09.017Z,19.07
2018-09-02T08:45:37.909Z,16.33
2018-09-02T08:48:06.391Z,15.60
2018-09-02T08:50:34.957Z,15.83
2018-09-02T08:53:03.368Z,16.20
2018-09-02T08:55:32.125Z,16.23
2018-09-02T08:58:00.976Z,16.10
2018-09-02T09:00:29.873Z,18.93
2018-09-02T09:02:58.320Z,15.97
2018-09-02T09:05:26.730Z,15.47
2018-09-02T09:07:55.267Z,14.30
2018-09-02T09:10:23.650Z,15.70
2018-09-02T09:12:52.078Z,13.00
2018-09-02T09:15:20.452Z,15.20
2018-09-02T09:17:48.980Z,13.57
2018-09-02T09:20:17.390Z,12.20
2018-09-02T09:22:45.864Z,12.23
2018-09-02T09:25:14.424Z,11.00
2018-09-02T09:27:42.696Z,12.43
2018-09-02T09:30:11.601Z,12.33
2018-09-02T09:32:40.651Z,11.33
2018-09-02T09:35:09.047Z,12.07
2018-09-02T09:37:37.707Z,13.43
2018-09-02T09:40:06.576Z,11.93
2018-09-02T09:42:34.983Z,10.73
2018-09-02T09:45:04.107Z,12.07
2018-09-02T09:47:32.546Z,12.37
2018-09-02T09:50:00.964Z,11.27
2018-09-02T09:52:29.393Z,11.30
2018-09-02T09:54:58.098Z,10.97
2018-09-02T09:57:26.494Z,13.40
2018-09-02T09:59:54.967Z,10.90
2018-09-02T10:02:23.394Z,9.67
2018-09-02T10:04:51.808Z,11.40
2018-09-02T10:07:20.207Z,9.00
2018-09-02T10:09:48.664Z,11.63
2018-09-02T10:12:17.063Z,9.83
2018-09-02T10:14:45.447Z,12.53
2018-09-02T10:17:13.876Z,10.70
2018-09-02T10:19:42.297Z,11.87
2018-09-02T10:22:10.746Z,11.13
2018-09-02T10:24:39.095Z,10.23
2018-09-02T10:27:07.485Z,10.90
2018-09-02T10:29:35.869Z,11.20
2018-09-02T10:32:04.263Z,8.93
2018-09-02T10:34:32.651Z,8.50
2018-09-02T10:37:01.047Z,10.60
2018-09-02T10:39:29.446Z,11.33
2018-09-02T10:41:58.118Z,8.67
2018-09-02T10:44:26.526Z,7.43
2018-09-02T10:46:54.930Z,8.50
2018-09-02T10:49:23.318Z,9.97
2018-09-02T10:51:51.723Z,9.33
2018-09-02T10:54:20.110Z,7.43
2018-09-02T10:56:48.531Z,9.17
2018-09-02T10:59:17.004Z,7.13
2018-09-02T11:01:45.386Z,7.70
2018-09-02T11:04:13.778Z,6.60
2018-09-02T11:06:42.207Z,9.37
2018-09-02T11:09:11.724Z,5.53
2018-09-02T11:11:40.176Z,8.17
2018-09-02T11:14:09.236Z,6.03
2018-09-02T11:16:37.712Z,6.10
2018-09-02T11:19:06.688Z,9.27
2018-09-02T11:21:35.117Z,6.47
2018-09-02T11:24:03.515Z,6.10
2018-09-02T11:26:31.890Z,6.50
2018-09-02T11:29:00.465Z,4.47
2018-09-02T11:31:28.854Z,6.03
2018-09-02T11:33:57.299Z,6.33
2018-09-02T11:36:26.049Z,5.23
2018-09-02T11:38:54.446Z,5.43
2018-09-02T11:41:22.861Z,5.70
2018-09-02T11:43:51.276Z,7.70
2018-09-02T11:46:19.674Z,8.30
2018-09-02T11:48:48.067Z,5.33
2018-09-02T11:51:16.480Z,3.70
2018-09-02T11:53:44.881Z,4.77
2018-09-02T11:56:13.291Z,4.33
2018-09-02T11:58:41.873Z,6.03
2018-09-02T12:01:10.285Z,5.10
2018-09-02T12:03:38.665Z,3.43
2018-09-02T12:06:07.069Z,7.13
2018-09-02T12:08:35.585Z,10.60
2018-09-02T12:11:03.995Z,5.93
2018-09-02T12:13:32.475Z,6.77
2018-09-02T12:16:00.949Z,4.53
2018-09-02T12:18:29.469Z,5.53
2018-09-02T12:20:57.891Z,5.73
2018-09-02T12:23:26.357Z,5.80
2018-09-02T12:25:54.773Z,5.90
2018-09-02T12:28:23.177Z,6.00
2018-09-02T12:30:51.583Z,5.30
2018-09-02T12:33:20.028Z,5.23
2018-09-02T12:35:48.457Z,7.67
2018-09-02T12:38:16.879Z,5.97
2018-09-02T12:40:45.336Z,5.87
2018-09-02T12:43:13.775Z,6.57
2018-09-02T12:45:42.211Z,6.73
2018-09-02T12:48:10.622Z,6.33
2018-09-02T12:50:39.030Z,5.47
2018-09-02T12:53:07.434Z,5.43
2018-09-02T12:55:35.847Z,6.90
2018-09-02T12:58:04.262Z,3.63
2018-09-02T13:00:34.719Z,5.43
2018-09-02T13:03:04.034Z,5.17
2018-09-02T13:05:32.404Z,5.57
2018-09-02T13:08:00.778Z,4.87
2018-09-02T13:10:29.167Z,6.23
2018-09-02T13:12:57.580Z,5.13
2018-09-02T13:15:26.051Z,5.80
2018-09-02T13:17:54.383Z,6.40
2018-09-02T13:20:22.775Z,8.37
2018-09-02T13:22:51.163Z,5.73
2018-09-02T13:25:19.610Z,4.57
2018-09-02T13:27:48.063Z,6.03
2018-09-02T13:30:16.490Z,7.57
2018-09-02T13:32:44.893Z,4.83
2018-09-02T13:35:13.289Z,4.07
2018-09-02T13:37:41.677Z,6.20
2018-09-02T13:40:10.228Z,4.67
2018-09-02T13:42:38.685Z,5.30
2018-09-02T13:45:07.955Z,7.33
2018-09-02T13:47:36.739Z,5.00
2018-09-02T13:50:05.175Z,7.20
2018-09-02T13:52:33.592Z,4.57
2018-09-02T13:55:02.007Z,6.27
2018-09-02T13:57:30.405Z,5.63
2018-09-02T13:59:58.793Z,5.23
2018-09-02T14:02:27.198Z,4.43
2018-09-02T14:04:55.596Z,4.87
2018-09-02T14:07:24.300Z,6.90
2018-09-02T14:09:52.732Z,5.73
2018-09-02T14:12:21.162Z,9.37
2018-09-02T14:14:50.062Z,6.60
2018-09-02T14:17:18.487Z,5.37
2018-09-02T14:19:46.878Z,6.50
2018-09-02T14:22:15.298Z,4.80
2018-09-02T14:24:43.695Z,5.07
2018-09-02T14:27:12.094Z,4.97
2018-09-02T14:29:40.724Z,5.10
2018-09-02T14:32:09.126Z,4.00
2018-09-02T14:34:37.517Z,5.47
2018-09-02T14:37:06.348Z,6.80
2018-09-02T14:39:34.742Z,4.80
2018-09-02T14:42:03.289Z,5.33
2018-09-02T14:44:31.686Z,6.77
2018-09-02T14:47:00.065Z,6.87
2018-09-02T14:49:28.465Z,5.53
2018-09-02T14:51:56.855Z,5.70
2018-09-02T14:54:25.243Z,5.90
2018-09-02T14:56:53.631Z,5.60
2018-09-02T14:59:22.039Z,4.53
2018-09-02T15:01:50.430Z,6.17
2018-09-02T15:04:18.841Z,6.40
2018-09-02T15:06:47.231Z,4.93
2018-09-02T15:09:15.611Z,5.03
2018-09-02T15:11:44.119Z,4.60
2018-09-02T15:14:12.516Z,5.70
2018-09-02T15:16:40.942Z,5.03
2018-09-02T15:19:09.346Z,5.43
2018-09-02T15:21:37.782Z,6.10
2018-09-02T15:24:06.215Z,5.27
2018-09-02T15:26:34.605Z,7.37
2018-09-02T15:29:03.021Z,6.30
2018-09-02T15:31:31.419Z,6.57
2018-09-02T15:33:59.806Z,5.40
2018-09-02T15:36:28.195Z,8.27
2018-09-02T15:38:56.627Z,6.17
2018-09-02T15:41:25.037Z,9.70
2018-09-02T15:43:53.431Z,5.80
2018-09-02T15:46:21.868Z,4.33
2018-09-02T15:48:50.298Z,5.50
2018-09-02T15:51:18.691Z,6.97
2018-09-02T15:53:47.103Z,5.03
2018-09-02T15:56:15.510Z,5.70
2018-09-02T15:58:43.920Z,4.90
2018-09-02T16:01:12.298Z,4.77
2018-09-02T16:03:40.714Z,4.80
2018-09-02T16:06:09.129Z,4.17
2018-09-02T16:08:37.747Z,6.20
2018-09-02T16:11:06.167Z,6.63
2018-09-02T16:13:34.579Z,4.93
2018-09-02T16:16:02.973Z,4.03
2018-09-02T16:18:31.386Z,6.00
2018-09-02T16:20:59.788Z,5.77
2018-09-02T16:23:28.187Z,4.43
2018-09-02T16:25:56.795Z,5.87
2018-09-02T16:28:25.227Z,4.33
2018-09-02T16:30:53.842Z,4.53
2018-09-02T16:33:22.418Z,5.10
2018-09-02T16:35:50.892Z,4.60
2018-09-02T16:38:19.289Z,4.27
2018-09-02T16:40:48.012Z,3.90
2018-09-02T16:43:16.440Z,5.13
2018-09-02T16:45:44.838Z,3.80
2018-09-02T16:48:13.236Z,4.77
2018-09-02T16:50:41.638Z,4.20
2018-09-02T16:53:10.025Z,5.80
2018-09-02T16:55:38.415Z,5.20
2018-09-02T16:58:06.838Z,5.17
2018-09-02T17:00:35.279Z,4.53
2018-09-02T17:03:03.717Z,4.27
2018-09-02T17:05:32.123Z,4.33
2018-09-02T17:08:00.515Z,3.23
2018-09-02T17:10:28.929Z,3.87
2018-09-02T17:12:57.436Z,5.43
2018-09-02T17:15:25.764Z,3.90
2018-09-02T17:17:54.662Z,3.77
2018-09-02T17:20:29.649Z,4.20
2018-09-02T17:23:03.305Z,3.63
2018-09-02T17:25:31.761Z,5.10
2018-09-02T17:28:00.171Z,5.43
2018-09-02T17:30:28.599Z,4.80
2018-09-02T17:32:58.041Z,4.00
2018-09-02T17:35:27.173Z,5.27
2018-09-02T17:37:55.653Z,3.27
2018-09-02T17:40:24.094Z,4.90
2018-09-02T17:42:52.520Z,4.97
2018-09-02T17:45:21.247Z,6.80
2018-09-02T17:47:49.671Z,4.90
2018-09-02T17:50:18.419Z,4.93
2018-09-02T17:52:47.731Z,6.23
2018-09-02T17:55:16.380Z,6.20
2018-09-02T17:57:44.838Z,4.87
2018-09-02T18:00:17.937Z,6.03
2018-09-02T18:02:46.820Z,5.00
2018-09-02T18:05:15.204Z,5.60
2018-09-02T18:07:43.763Z,5.83
2018-09-02T18:10:12.174Z,6.43
2018-09-02T18:12:41.138Z,5.60
2018-09-02T18:15:09.582Z,6.73
2018-09-02T18:17:38.080Z,6.27
2018-09-02T18:20:12.419Z,5.50
2018-09-02T18:22:40.929Z,5.23
2018-09-02T18:25:09.376Z,6.80
2018-09-02T18:27:40.486Z,9.57
2018-09-02T18:30:08.926Z,11.93
2018-09-02T18:32:38.401Z,11.67
2018-09-02T18:35:06.727Z,9.17
2018-09-02T18:37:35.210Z,9.63
2018-09-02T18:40:03.665Z,10.67
2018-09-02T18:42:32.073Z,8.40
2018-09-02T18:45:01.824Z,8.43
2018-09-02T18:47:30.230Z,8.80
2018-09-02T18:49:58.648Z,10.53
2018-09-02T18:52:27.161Z,8.67
2018-09-02T18:54:55.554Z,11.20
2018-09-02T18:57:23.994Z,11.87
2018-09-02T18:59:52.384Z,8.90
2018-09-02T19:02:20.844Z,10.00
2018-09-02T19:04:49.263Z,10.63
2018-09-02T19:07:18.020Z,10.17
2018-09-02T19:09:46.504Z,11.23
2018-09-02T19:12:14.862Z,11.43
2018-09-02T19:14:43.275Z,8.43
2018-09-02T19:17:11.701Z,12.70
2018-09-02T19:19:40.584Z,10.07
2018-09-02T19:22:09.421Z,14.63
2018-09-02T19:24:38.471Z,9.47
2018-09-02T19:27:07.011Z,9.90
2018-09-02T19:29:35.455Z,10.10
2018-09-02T19:32:03.899Z,10.73
2018-09-02T19:34:32.303Z,12.77
2018-09-02T19:37:00.722Z,9.83
2018-09-02T19:39:29.124Z,10.17
2018-09-02T19:41:57.789Z,12.70
2018-09-02T19:44:26.203Z,10.50
2018-09-02T19:46:54.644Z,11.43
2018-09-02T19:49:23.906Z,10.23
2018-09-02T19:51:52.865Z,13.40
2018-09-02T19:54:28.570Z,10.77
2018-09-02T19:56:58.048Z,9.47
2018-09-02T19:59:26.436Z,9.60
2018-09-02T20:01:55.012Z,9.93
2018-09-02T20:04:23.543Z,11.73
2018-09-02T20:06:51.945Z,9.83
2018-09-02T20:09:20.363Z,9.97
2018-09-02T20:11:48.782Z,11.27
2018-09-02T20:14:17.224Z,11.40
2018-09-02T20:16:45.654Z,14.43
2018-09-02T20:19:14.064Z,12.27
2018-09-02T20:21:42.472Z,11.87
2018-09-02T20:24:16.126Z,16.50
2018-09-02T20:26:44.572Z,12.93
2018-09-02T20:29:12.984Z,14.47
2018-09-02T20:31:41.397Z,12.47
2018-09-02T20:34:09.796Z,12.83
2018-09-02T20:36:38.206Z,16.77
2018-09-02T20:39:08.211Z,12.43
2018-09-02T20:41:36.895Z,12.47
2018-09-02T20:44:05.693Z,11.70
2018-09-02T20:46:34.385Z,11.47
2018-09-02T20:49:02.839Z,11.53
2018-09-02T20:51:31.241Z,12.23
2018-09-02T20:53:59.792Z,14.63
2018-09-02T20:56:28.206Z,14.63
2018-09-02T20:58:57.219Z,13.27
2018-09-02T21:01:25.734Z,13.20
2018-09-02T21:03:54.206Z,11.87
2018-09-02T21:06:23.087Z,12.43
2018-09-02T21:08:51.491Z,12.00
2018-09-02T21:11:19.919Z,13.43
2018-09-02T21:13:48.311Z,12.27
2018-09-02T21:16:16.711Z,12.53
2018-09-02T21:18:45.127Z,11.60
2018-09-02T21:21:13.968Z,10.53
2018-09-02T21:23:42.469Z,12.53
2018-09-02T21:26:10.865Z,11.03
2018-09-02T21:28:39.372Z,10.83
2018-09-02T21:31:08.470Z,12.33
2018-09-02T21:33:37.434Z,11.17
2018-09-02T21:36:06.021Z,10.73
2018-09-02T21:38:34.426Z,11.77
2018-09-02T21:41:02.845Z,10.67
2018-09-02T21:43:31.514Z,12.27
2018-09-02T21:46:00.332Z,12.53
2018-09-02T21:48:28.726Z,12.90
2018-09-02T21:50:57.198Z,14.27
2018-09-02T21:53:26.306Z,12.40
2018-09-02T21:55:54.718Z,12.23
2018-09-02T21:58:23.261Z,12.60
2018-09-02T22:00:51.684Z,12.87
2018-09-02T22:03:20.071Z,13.00
2018-09-02T22:05:48.678Z,12.60
2018-09-02T22:08:17.312Z,14.27
2018-09-02T22:10:45.706Z,12.40
2018-09-02T22:13:14.665Z,11.93
2018-09-02T22:15:43.090Z,12.87
2018-09-02T22:18:11.509Z,12.33
2018-09-02T22:20:41.891Z,13.80
2018-09-02T22:23:10.722Z,13.57
2018-09-02T22:25:39.221Z,16.90
2018-09-02T22:28:07.547Z,14.27
2018-09-02T22:30:36.211Z,14.83
2018-09-02T22:33:05.009Z,15.57
2018-09-02T22:35:33.413Z,14.53
2018-09-02T22:38:02.362Z,13.57
2018-09-02T22:40:30.769Z,14.57
2018-09-02T22:42:59.186Z,14.37
2018-09-02T22:45:27.881Z,13.80
2018-09-02T22:47:56.311Z,14.53
2018-09-02T22:50:25.113Z,14.77
2018-09-02T22:52:53.706Z,14.27
2018-09-02T22:55:22.100Z,17.80
2018-09-02T22:57:50.929Z,14.23
2018-09-02T23:00:19.300Z,15.00
2018-09-02T23:02:47.989Z,14.53
2018-09-02T23:05:16.847Z,14.93
2018-09-02T23:07:46.355Z,14.07
2018-09-02T23:10:14.749Z,12.70
2018-09-02T23:12:43.170Z,14.70
2018-09-02T23:15:11.592Z,18.00
2018-09-02T23:17:40.002Z,14.93
2018-09-02T23:20:08.796Z,12.20
2018-09-02T23:22:37.239Z,13.07
2018-09-02T23:25:05.658Z,13.37
2018-09-02T23:27:34.720Z,13.27
2018-09-02T23:30:03.135Z,12.33
2018-09-02T23:32:31.536Z,13.27
2018-09-02T23:35:00.311Z,12.80
2018-09-02T23:37:29.142Z,12.50
2018-09-02T23:39:57.539Z,11.77
2018-09-02T23:42:25.940Z,13.00
2018-09-02T23:44:54.345Z,12.63
2018-09-02T23:47:23.194Z,12.00
2018-09-02T23:49:51.596Z,12.17
2018-09-02T23:52:19.989Z,11.90
2018-09-02T23:54:48.382Z,14.47
2018-09-02T23:57:16.779Z,11.30
2018-09-02T23:59:45.162Z,11.87
